createdAt,value
2019-02-17T00:02:38.847Z,17.37
2019-02-17T00:05:18.954Z,15.47
2019-02-17T00:07:46.429Z,17.47
2019-02-17T00:10:33.350Z,17.77
2019-02-17T00:13:11.297Z,20.13
2019-02-17T00:15:58.226Z,18.30
2019-02-17T00:18:25.670Z,20.87
2019-02-17T00:21:12.557Z,19.73
2019-02-17T00:23:52.108Z,23.13
2019-02-17T00:26:32.119Z,25.40
2019-02-17T00:29:12.111Z,26.60
2019-02-17T00:31:52.095Z,30.53
2019-02-17T00:34:32.115Z,30.83
2019-02-17T00:37:11.980Z,33.80
2019-02-17T00:39:52.129Z,26.93
2019-02-17T00:42:32.464Z,31.07
2019-02-17T00:45:12.578Z,23.87
2019-02-17T00:47:52.440Z,23.23
2019-02-17T00:50:32.438Z,23.43
2019-02-17T00:53:12.379Z,24.93
2019-02-17T00:55:52.016Z,23.60
2019-02-17T00:58:32.383Z,20.97
2019-02-17T01:01:12.411Z,21.00
2019-02-17T01:03:52.360Z,21.17
2019-02-17T01:06:32.473Z,21.50
2019-02-17T01:09:12.577Z,18.07
2019-02-17T01:11:52.609Z,24.30
2019-02-17T01:14:32.747Z,17.67
2019-02-17T01:17:12.765Z,19.23
2019-02-17T01:19:40.202Z,19.03
2019-02-17T01:22:27.061Z,20.43
2019-02-17T01:25:06.697Z,20.80
2019-02-17T01:27:46.731Z,21.83
2019-02-17T01:30:26.585Z,21.17
2019-02-17T01:33:06.491Z,27.60
2019-02-17T01:35:46.354Z,21.13
2019-02-17T01:38:26.603Z,23.13
2019-02-17T01:41:06.620Z,23.10
2019-02-17T01:43:33.984Z,24.13
2019-02-17T01:46:01.336Z,21.27
2019-02-17T01:48:28.714Z,21.00
2019-02-17T01:50:56.086Z,21.30
2019-02-17T01:53:23.808Z,25.50
2019-02-17T01:55:51.175Z,18.90
2019-02-17T01:58:18.616Z,23.07
2019-02-17T02:00:46.052Z,27.97
2019-02-17T02:03:13.398Z,22.27
2019-02-17T02:05:40.803Z,20.10
2019-02-17T02:08:08.186Z,16.67
2019-02-17T02:10:35.600Z,17.60
2019-02-17T02:13:03.017Z,15.70
2019-02-17T02:15:30.278Z,17.13
2019-02-17T02:17:57.686Z,17.60
2019-02-17T02:20:25.492Z,15.60
2019-02-17T02:22:53.187Z,15.57
2019-02-17T02:25:40.062Z,16.87
2019-02-17T02:28:09.343Z,22.53
2019-02-17T02:30:49.015Z,23.07
2019-02-17T02:33:29.065Z,23.53
2019-02-17T02:36:09.124Z,20.03
2019-02-17T02:38:36.773Z,19.47
2019-02-17T02:41:33.882Z,18.57
2019-02-17T02:44:25.490Z,16.93
2019-02-17T02:47:05.652Z,16.70
2019-02-17T02:49:45.727Z,16.37
2019-02-17T02:52:25.703Z,16.40
2019-02-17T02:55:05.815Z,17.77
2019-02-17T02:57:46.107Z,16.37
2019-02-17T03:00:25.975Z,17.50
2019-02-17T03:02:53.343Z,16.97
2019-02-17T03:05:20.785Z,15.33
2019-02-17T03:07:48.280Z,16.17
2019-02-17T03:10:35.264Z,28.37
2019-02-17T03:13:02.714Z,24.33
2019-02-17T03:15:49.710Z,25.27
2019-02-17T03:18:29.496Z,22.17
2019-02-17T03:21:09.456Z,20.37
2019-02-17T03:23:36.939Z,20.80
2019-02-17T03:26:23.814Z,25.13
2019-02-17T03:29:03.479Z,20.77
2019-02-17T03:31:43.584Z,19.53
2019-02-17T03:34:23.829Z,23.57
2019-02-17T03:37:03.893Z,19.13
2019-02-17T03:39:43.858Z,24.97
2019-02-17T03:42:23.978Z,18.07
2019-02-17T03:45:03.919Z,20.10
2019-02-17T03:47:43.865Z,17.30
2019-02-17T03:50:11.210Z,17.40
2019-02-17T03:52:49.248Z,19.83
2019-02-17T03:55:28.835Z,16.83
2019-02-17T03:58:09.076Z,20.93
2019-02-17T04:00:49.076Z,20.37
2019-02-17T04:03:29.116Z,20.17
2019-02-17T04:06:09.136Z,24.13
2019-02-17T04:08:49.286Z,20.50
2019-02-17T04:11:29.115Z,18.97
2019-02-17T04:13:57.770Z,18.83
2019-02-17T04:16:25.159Z,18.70
2019-02-17T04:19:04.908Z,17.97
2019-02-17T04:21:44.823Z,23.03
2019-02-17T04:24:25.708Z,24.03
2019-02-17T04:26:53.082Z,23.27
2019-02-17T04:29:39.987Z,20.53
2019-02-17T04:32:19.635Z,18.47
2019-02-17T04:34:59.581Z,23.40
2019-02-17T04:37:27.044Z,18.70
2019-02-17T04:40:13.922Z,21.60
2019-02-17T04:42:41.699Z,20.20
2019-02-17T04:45:28.541Z,17.17
2019-02-17T04:48:08.259Z,15.27
2019-02-17T04:50:48.399Z,17.07
2019-02-17T04:53:29.073Z,17.30
2019-02-17T04:56:09.247Z,17.40
2019-02-17T04:58:49.623Z,17.67
2019-02-17T05:01:29.477Z,17.80
2019-02-17T05:04:09.474Z,19.63
2019-02-17T05:06:49.872Z,22.93
2019-02-17T05:09:30.445Z,16.93
2019-02-17T05:12:10.507Z,21.10
2019-02-17T05:14:50.559Z,16.10
2019-02-17T05:17:30.469Z,17.13
2019-02-17T05:20:10.597Z,18.97
2019-02-17T05:22:39.480Z,18.13
2019-02-17T05:25:14.218Z,20.53
2019-02-17T05:27:54.218Z,18.50
2019-02-17T05:30:34.368Z,17.53
2019-02-17T05:33:14.281Z,16.53
2019-02-17T05:35:54.426Z,18.13
2019-02-17T05:38:34.420Z,23.63
2019-02-17T05:41:14.482Z,21.37
2019-02-17T05:43:54.495Z,19.47
2019-02-17T05:46:34.520Z,17.30
2019-02-17T05:49:14.810Z,20.40
2019-02-17T05:51:54.463Z,18.87
2019-02-17T05:54:34.598Z,22.73
2019-02-17T05:57:01.983Z,24.07
2019-02-17T05:59:48.852Z,17.63
2019-02-17T06:04:02.428Z,24.67
2019-02-17T06:06:29.851Z,23.73
2019-02-17T06:09:16.996Z,21.43
2019-02-17T06:11:57.451Z,17.80
2019-02-17T06:14:37.323Z,20.50
2019-02-17T06:17:17.445Z,20.30
2019-02-17T06:19:57.462Z,18.07
2019-02-17T06:22:37.398Z,18.60
2019-02-17T06:25:17.395Z,21.27
2019-02-17T06:27:57.532Z,18.27
2019-02-17T06:30:37.637Z,20.37
2019-02-17T06:33:17.707Z,18.47
2019-02-17T06:35:57.682Z,21.07
2019-02-17T06:38:37.607Z,16.80
2019-02-17T06:41:17.916Z,16.03
2019-02-17T06:43:58.036Z,20.13
2019-02-17T06:46:42.457Z,19.87
2019-02-17T06:49:22.694Z,20.80
2019-02-17T06:52:03.012Z,21.07
2019-02-17T06:54:44.794Z,19.73
2019-02-17T06:57:30.257Z,21.23
2019-02-17T07:00:29.689Z,17.13
2019-02-17T07:03:09.501Z,22.97
2019-02-17T07:05:56.841Z,18.80
2019-02-17T07:08:43.773Z,20.80
2019-02-17T07:11:23.568Z,20.47
2019-02-17T07:14:03.730Z,29.70
2019-02-17T07:16:43.762Z,17.87
2019-02-17T07:19:23.885Z,21.03
2019-02-17T07:22:03.880Z,27.07
2019-02-17T07:24:43.578Z,19.77
2019-02-17T07:27:23.773Z,23.80
2019-02-17T07:30:03.713Z,24.17
2019-02-17T07:32:44.965Z,23.10
2019-02-17T07:35:24.870Z,21.27
2019-02-17T07:37:52.335Z,19.93
2019-02-17T07:40:39.189Z,22.60
2019-02-17T07:43:19.171Z,19.30
2019-02-17T07:45:59.133Z,20.17
2019-02-17T07:48:38.952Z,31.63
2019-02-17T07:51:19.007Z,24.37
2019-02-17T07:53:59.106Z,20.93
2019-02-17T07:56:39.215Z,20.57
2019-02-17T07:59:19.184Z,22.10
2019-02-17T08:01:59.078Z,19.30
2019-02-17T08:04:39.332Z,16.90
2019-02-17T08:07:19.430Z,22.33
2019-02-17T08:09:46.699Z,25.27
2019-02-17T08:12:33.835Z,20.30
2019-02-17T08:15:14.096Z,22.30
2019-02-17T08:17:42.434Z,20.20
2019-02-17T08:20:10.603Z,16.73
2019-02-17T08:22:51.558Z,19.87
2019-02-17T08:31:55.811Z,24.20
2019-02-17T08:34:34.047Z,30.07
2019-02-17T08:37:14.096Z,20.63
2019-02-17T08:39:54.193Z,19.53
2019-02-17T08:42:34.211Z,24.87
2019-02-17T08:45:04.661Z,24.93
2019-02-17T08:47:51.529Z,20.10
2019-02-17T08:50:31.449Z,19.03
2019-02-17T08:53:11.506Z,19.63
2019-02-17T08:55:38.924Z,18.30
2019-02-17T08:58:25.867Z,22.47
2019-02-17T09:01:05.681Z,18.10
2019-02-17T09:03:45.929Z,18.53
2019-02-17T09:06:26.078Z,18.43
2019-02-17T09:09:06.115Z,18.73
2019-02-17T09:11:47.467Z,18.97
2019-02-17T09:14:27.499Z,18.90
2019-02-17T09:17:07.464Z,14.90
2019-02-17T09:19:47.543Z,19.80
2019-02-17T09:22:27.675Z,18.07
2019-02-17T09:25:07.683Z,18.97
2019-02-17T09:27:47.510Z,21.83
2019-02-17T09:30:27.577Z,18.33
2019-02-17T09:33:07.794Z,16.67
2019-02-17T09:35:48.084Z,20.67
2019-02-17T09:38:27.970Z,22.63
2019-02-17T09:41:08.125Z,19.00
2019-02-17T09:43:48.096Z,18.30
2019-02-17T09:46:27.971Z,20.23
2019-02-17T09:49:08.270Z,23.10
2019-02-17T09:51:48.198Z,31.97
2019-02-17T09:54:27.992Z,35.10
2019-02-17T09:57:08.078Z,25.17
2019-02-17T09:59:48.044Z,22.10
2019-02-17T10:02:28.094Z,19.27
2019-02-17T10:05:07.946Z,18.80
2019-02-17T10:07:47.986Z,18.40
2019-02-17T10:10:27.962Z,20.43
2019-02-17T10:13:08.196Z,16.67
2019-02-17T10:15:48.022Z,20.80
2019-02-17T10:18:15.349Z,18.63
2019-02-17T10:21:02.269Z,19.30
2019-02-17T10:23:41.990Z,19.60
2019-02-17T10:26:22.150Z,20.70
2019-02-17T10:29:02.046Z,21.23
2019-02-17T10:31:41.866Z,16.73
2019-02-17T10:34:22.958Z,18.77
2019-02-17T10:37:04.026Z,23.97
2019-02-17T10:39:43.930Z,19.50
2019-02-17T10:42:23.978Z,19.90
2019-02-17T10:45:03.993Z,18.00
2019-02-17T10:47:44.174Z,18.10
2019-02-17T10:50:24.285Z,17.07
2019-02-17T10:53:04.198Z,20.23
2019-02-17T10:55:44.096Z,22.53
2019-02-17T10:58:24.372Z,22.03
2019-02-17T11:01:04.510Z,22.53
2019-02-17T11:03:44.551Z,19.53
2019-02-17T11:06:24.671Z,19.27
2019-02-17T11:12:12.691Z,17.93
2019-02-17T11:14:52.755Z,19.40
2019-02-17T11:17:32.977Z,19.77
2019-02-17T11:20:12.937Z,17.73
2019-02-17T11:22:52.834Z,20.63
2019-02-17T11:25:32.706Z,31.63
2019-02-17T11:28:12.629Z,21.53
2019-02-17T11:30:52.945Z,26.33
2019-02-17T11:33:32.971Z,21.57
2019-02-17T11:36:12.918Z,21.33
2019-02-17T11:38:53.039Z,20.50
2019-02-17T11:41:33.053Z,16.90
2019-02-17T11:44:12.899Z,17.40
2019-02-17T11:46:53.016Z,19.60
2019-02-17T11:49:33.277Z,19.90
2019-02-17T11:52:13.225Z,18.57
2019-02-17T11:54:53.321Z,18.53
2019-02-17T11:57:33.346Z,19.37
2019-02-17T12:00:13.606Z,26.00
2019-02-17T12:02:53.474Z,22.40
2019-02-17T12:05:33.519Z,18.10
2019-02-17T12:08:13.710Z,21.70
2019-02-17T12:10:54.140Z,24.77
2019-02-17T12:13:33.928Z,23.93
2019-02-17T12:16:14.094Z,21.33
2019-02-17T12:18:54.050Z,24.43
2019-02-17T12:24:53.840Z,19.53
2019-02-17T12:27:40.949Z,19.23
2019-02-17T12:30:12.836Z,16.80
2019-02-17T12:32:40.533Z,22.57
2019-02-17T12:35:20.471Z,16.97
2019-02-17T12:38:00.215Z,19.70
2019-02-17T12:40:30.689Z,20.13
2019-02-17T12:43:18.158Z,18.83
2019-02-17T12:45:58.623Z,18.90
2019-02-17T12:48:39.859Z,20.57
2019-02-17T12:51:19.537Z,18.93
2019-02-17T12:53:59.889Z,18.10
2019-02-17T12:56:40.317Z,16.33
2019-02-17T12:59:20.468Z,18.67
2019-02-17T13:02:00.424Z,18.47
2019-02-17T13:04:40.361Z,19.67
2019-02-17T13:07:20.370Z,20.33
2019-02-17T13:10:00.768Z,19.20
2019-02-17T13:12:40.810Z,32.00
2019-02-17T13:15:20.942Z,23.93
2019-02-17T13:17:48.330Z,19.93
2019-02-17T13:20:15.766Z,19.03
2019-02-17T13:22:55.631Z,18.23
2019-02-17T13:25:38.079Z,19.37
2019-02-17T13:28:17.867Z,20.57
2019-02-17T13:30:57.917Z,23.50
2019-02-17T13:33:39.375Z,23.37
2019-02-17T13:36:07.277Z,20.63
2019-02-17T13:38:54.668Z,22.07
2019-02-17T13:41:22.331Z,17.57
2019-02-17T13:44:02.072Z,21.97
2019-02-17T13:46:42.258Z,21.50
2019-02-17T13:49:22.910Z,18.90
2019-02-17T13:52:03.448Z,16.17
2019-02-17T13:54:47.585Z,21.67
2019-02-17T13:57:27.605Z,18.40
2019-02-17T14:00:07.887Z,18.27
2019-02-17T14:02:47.514Z,17.67
2019-02-17T14:05:27.494Z,15.97
2019-02-17T14:08:07.621Z,17.67
2019-02-17T14:10:50.846Z,13.57
2019-02-17T14:13:33.165Z,17.20
2019-02-17T14:16:12.959Z,20.50
2019-02-17T14:18:52.822Z,13.67
2019-02-17T14:21:32.649Z,11.33
2019-02-17T14:24:12.482Z,13.20
2019-02-17T14:26:52.423Z,13.50
2019-02-17T14:29:34.400Z,13.73
2019-02-17T14:32:15.619Z,17.43
2019-02-17T14:34:55.527Z,16.93
2019-02-17T14:37:37.133Z,17.47
2019-02-17T14:40:18.723Z,19.13
2019-02-17T14:42:58.883Z,14.83
2019-02-17T14:45:38.951Z,14.43
2019-02-17T14:48:21.032Z,16.00
2019-02-17T14:51:01.178Z,14.43
2019-02-17T14:53:40.889Z,13.80
2019-02-17T14:56:21.087Z,12.63
2019-02-17T14:59:02.560Z,14.83
2019-02-17T15:01:43.082Z,12.17
2019-02-17T15:04:23.375Z,12.77
2019-02-17T15:07:03.543Z,12.13
2019-02-17T15:09:43.699Z,10.67
2019-02-17T15:12:23.595Z,11.80
2019-02-17T15:15:03.553Z,16.90
2019-02-17T15:17:45.125Z,13.83
2019-02-17T15:20:25.523Z,12.87
2019-02-17T15:23:05.677Z,11.87
2019-02-17T15:25:45.784Z,11.40
2019-02-17T15:28:25.673Z,15.37
2019-02-17T15:31:05.683Z,13.30
2019-02-17T15:33:45.737Z,13.87
2019-02-17T15:36:25.851Z,14.07
2019-02-17T15:39:05.915Z,12.43
2019-02-17T15:41:46.801Z,14.07
2019-02-17T15:44:26.914Z,14.43
2019-02-17T15:47:07.498Z,12.20
2019-02-17T15:49:45.580Z,14.30
2019-02-17T15:52:32.456Z,15.30
2019-02-17T15:55:12.693Z,11.53
2019-02-17T15:57:52.840Z,16.63
2019-02-17T16:00:33.155Z,20.43
2019-02-17T16:03:11.186Z,15.13
2019-02-17T16:05:58.069Z,11.83
2019-02-17T16:08:38.123Z,13.73
2019-02-17T16:11:05.553Z,13.20
2019-02-17T16:13:52.463Z,17.63
2019-02-17T16:19:31.591Z,15.13
2019-02-17T16:22:12.716Z,15.03
2019-02-17T16:24:53.115Z,16.27
2019-02-17T16:27:33.315Z,13.40
2019-02-17T16:30:13.219Z,13.37
2019-02-17T16:32:53.977Z,10.30
2019-02-17T16:35:34.479Z,11.63
2019-02-17T16:38:14.343Z,8.37
2019-02-17T16:40:54.359Z,8.07
2019-02-17T16:43:21.835Z,11.13
2019-02-17T16:45:49.235Z,11.83
2019-02-17T16:48:16.621Z,9.23
2019-02-17T16:50:56.676Z,9.17
2019-02-17T16:53:36.750Z,11.07
2019-02-17T16:56:17.104Z,13.77
2019-02-17T16:58:57.211Z,10.77
2019-02-17T17:01:24.691Z,12.07
2019-02-17T17:03:52.499Z,9.27
2019-02-17T17:06:39.678Z,10.60
2019-02-17T17:09:19.103Z,8.47
2019-02-17T17:12:06.289Z,7.57
2019-02-17T17:14:47.046Z,12.57
2019-02-17T17:17:26.838Z,9.27
2019-02-17T17:20:07.908Z,13.10
2019-02-17T17:22:48.162Z,9.33
2019-02-17T17:25:28.175Z,11.43
2019-02-17T17:28:08.099Z,17.87
2019-02-17T17:30:48.320Z,9.57
2019-02-17T17:33:28.078Z,9.60
2019-02-17T17:36:08.208Z,8.47
2019-02-17T17:38:48.379Z,7.37
2019-02-17T17:41:28.333Z,8.07
2019-02-17T17:44:08.326Z,10.67
2019-02-17T17:46:48.281Z,8.50
2019-02-17T17:49:28.959Z,7.60
2019-02-17T17:52:08.415Z,8.83
2019-02-17T17:54:48.470Z,8.40
2019-02-17T17:57:29.501Z,8.13
2019-02-17T18:00:09.527Z,11.30
2019-02-17T18:02:49.704Z,8.50
2019-02-17T18:05:29.941Z,11.23
2019-02-17T18:07:57.422Z,7.53
2019-02-17T18:10:37.787Z,7.93
2019-02-17T18:13:05.171Z,13.03
2019-02-17T18:15:52.067Z,33.33
2019-02-17T18:18:32.482Z,15.37
2019-02-17T18:21:12.447Z,8.77
2019-02-17T18:23:52.431Z,8.27
2019-02-17T18:26:32.811Z,22.00
2019-02-17T18:29:00.266Z,11.23
2019-02-17T18:31:39.798Z,11.60
2019-02-17T18:34:19.631Z,10.80
2019-02-17T18:36:59.721Z,11.00
2019-02-17T18:39:39.585Z,8.20
2019-02-17T18:42:19.675Z,14.93
2019-02-17T18:44:59.743Z,9.97
2019-02-17T18:47:39.718Z,7.77
2019-02-17T18:50:11.458Z,6.43
2019-02-17T18:52:38.984Z,10.83
2019-02-17T18:55:08.898Z,11.13
2019-02-17T18:57:55.920Z,10.03
2019-02-17T19:00:36.337Z,14.00
2019-02-17T19:03:03.807Z,11.60
2019-02-17T19:05:50.754Z,13.60
2019-02-17T19:08:18.247Z,8.63
2019-02-17T19:11:05.110Z,16.23
2019-02-17T19:13:45.433Z,13.70
2019-02-17T19:16:13.129Z,11.53
2019-02-17T19:19:02.494Z,11.97
2019-02-17T19:21:30.012Z,14.73
2019-02-17T19:24:16.905Z,14.73
2019-02-17T19:26:56.739Z,12.60
2019-02-17T19:29:36.958Z,10.87
2019-02-17T19:32:17.103Z,22.33
2019-02-17T19:34:44.542Z,15.47
2019-02-17T19:37:31.453Z,9.60
2019-02-17T19:39:58.746Z,18.53
2019-02-17T19:42:26.156Z,16.37
2019-02-17T19:44:53.550Z,14.80
2019-02-17T19:47:40.358Z,15.13
2019-02-17T19:50:22.091Z,19.67
2019-02-17T19:53:02.128Z,13.03
2019-02-17T19:55:42.443Z,13.33
2019-02-17T19:58:22.296Z,19.30
2019-02-17T20:01:02.321Z,17.23
2019-02-17T20:06:44.909Z,16.57
2019-02-17T20:09:24.835Z,18.63
2019-02-17T20:12:05.118Z,14.97
2019-02-17T20:14:45.020Z,20.33
2019-02-17T20:17:24.894Z,14.90
2019-02-17T20:20:04.862Z,11.17
2019-02-17T20:22:44.615Z,13.13
2019-02-17T20:25:24.572Z,15.87
2019-02-17T20:28:04.527Z,10.00
2019-02-17T20:30:44.434Z,7.57
2019-02-17T20:39:24.778Z,9.97
2019-02-17T20:42:04.753Z,13.73
2019-02-17T20:44:44.844Z,10.80
2019-02-17T20:47:24.941Z,13.87
2019-02-17T20:50:04.883Z,15.90
2019-02-17T20:52:45.054Z,17.10
2019-02-17T20:55:26.038Z,16.47
2019-02-17T20:58:05.998Z,14.93
2019-02-17T21:00:46.095Z,14.20
2019-02-17T21:03:26.043Z,12.80
2019-02-17T21:06:12.473Z,14.20
2019-02-17T21:08:47.940Z,13.83
2019-02-17T21:11:27.883Z,18.97
2019-02-17T21:14:07.903Z,17.43
2019-02-17T21:16:47.853Z,15.50
2019-02-17T21:19:27.980Z,16.63
2019-02-17T21:22:07.963Z,16.30
2019-02-17T21:24:48.043Z,21.20
2019-02-17T21:27:28.279Z,15.47
2019-02-17T21:30:08.257Z,25.07
2019-02-17T21:32:48.434Z,20.20
2019-02-17T21:35:28.384Z,19.27
2019-02-17T21:38:08.495Z,15.70
2019-02-17T21:40:48.522Z,18.07
2019-02-17T21:43:28.576Z,21.63
2019-02-17T21:46:08.487Z,23.60
2019-02-17T21:48:48.466Z,22.47
2019-02-17T21:51:28.381Z,19.20
2019-02-17T21:54:08.473Z,17.60
2019-02-17T21:56:48.658Z,20.43
2019-02-17T21:59:28.816Z,19.13
2019-02-17T22:02:08.810Z,22.23
2019-02-17T22:04:48.814Z,23.00
2019-02-17T22:10:15.647Z,16.27
2019-02-17T22:13:02.534Z,18.70
2019-02-17T22:15:49.437Z,22.27
2019-02-17T22:18:29.836Z,21.17
2019-02-17T22:21:09.421Z,18.03
2019-02-17T22:23:49.600Z,25.27
2019-02-17T22:26:29.759Z,18.37
2019-02-17T22:29:09.322Z,17.10
2019-02-17T22:31:49.571Z,16.27
2019-02-17T22:34:30.271Z,19.43
2019-02-17T22:37:10.741Z,19.30
2019-02-17T22:39:50.674Z,20.40
2019-02-17T22:42:30.714Z,20.83
2019-02-17T22:45:10.903Z,17.33
2019-02-17T22:47:38.360Z,16.50
2019-02-17T22:50:25.235Z,14.17
2019-02-17T22:53:05.219Z,20.40
2019-02-17T22:55:45.087Z,15.83
2019-02-17T22:58:25.095Z,17.33
2019-02-17T23:01:06.929Z,21.70
2019-02-17T23:03:48.177Z,18.93
2019-02-17T23:06:27.900Z,21.37
2019-02-17T23:09:08.101Z,16.53
2019-02-17T23:11:49.055Z,15.47
2019-02-17T23:14:29.355Z,20.10
2019-02-17T23:17:09.172Z,21.20
2019-02-17T23:19:49.223Z,19.07
2019-02-17T23:22:30.225Z,20.00
2019-02-17T23:25:10.297Z,18.93
2019-02-17T23:27:50.290Z,20.80
2019-02-17T23:30:30.405Z,17.60
2019-02-17T23:33:10.381Z,21.63
2019-02-17T23:35:50.619Z,17.33
2019-02-17T23:38:30.666Z,18.23
2019-02-17T23:41:10.698Z,20.93
2019-02-17T23:43:50.628Z,17.13
2019-02-17T23:46:30.756Z,20.17
2019-02-17T23:49:10.673Z,16.60
2019-02-17T23:51:50.656Z,20.30
2019-02-17T23:54:30.785Z,15.50
2019-02-17T23:56:58.179Z,15.97
2019-02-17T23:59:45.100Z,16.20
